Time;durP1;ratioP1;P1;durP2;ratioP2;P2;SDS_P1;SDS_P2;PMS_P1;PMS_P2;Temp;Humidity;BMP_temperature;BMP_pressure;BME280_temperature;BME280_humidity;BME280_pressure;Samples;Min_cycle;Max_cycle;Signal;HPM_P1;HPM_P2
2022/11/14 00:00:54;;;;;;;9.25;6.95;;;;;;;;;;5046934;28;20053;-69
2022/11/14 00:03:19;;;;;;;10.52;5.85;;;;;;;;;;5046246;28;20042;-69
2022/11/14 00:05:45;;;;;;;12.15;5.82;;;;;;;;;;5033022;28;20022;-69
2022/11/14 00:08:21;;;;;;;7.30;6.10;;;;;;;;;;5042734;28;20013;-69
2022/11/14 00:10:47;;;;;;;8.63;6.00;;;;;;;;;;5052603;28;20027;-69
2022/11/14 00:13:12;;;;;;;8.30;5.72;;;;;;;;;;5039668;28;20107;-69
2022/11/14 00:15:37;;;;;;;9.82;5.60;;;;;;;;;;5052821;28;20021;-69
2022/11/14 00:18:03;;;;;;;10.70;5.65;;;;;;;;;;5052590;28;20386;-69
2022/11/14 00:20:28;;;;;;;8.13;6.15;;;;;;;;;;5052940;28;20017;-69
2022/11/14 00:22:53;;;;;;;9.57;5.95;;;;;;;;;;5046632;28;20021;-69
2022/11/14 00:25:18;;;;;;;9.60;6.40;;;;;;;;;;5048291;28;20112;-69
2022/11/14 00:27:44;;;;;;;10.15;6.63;;;;;;;;;;5043377;28;20021;-69
2022/11/14 00:30:09;;;;;;;9.43;6.03;;;;;;;;;;5052620;28;20053;-69
2022/11/14 00:32:34;;;;;;;15.57;5.80;;;;;;;;;;5052661;28;20426;-69
2022/11/14 00:35:00;;;;;;;11.35;5.90;;;;;;;;;;5053020;28;20337;-68
2022/11/14 00:37:25;;;;;;;8.82;6.15;;;;;;;;;;5051887;28;20025;-68
2022/11/14 00:39:51;;;;;;;9.27;6.20;;;;;;;;;;5052544;28;20108;-68
2022/11/14 00:42:16;;;;;;;7.20;5.93;;;;;;;;;;5052151;28;20071;-68
2022/11/14 00:44:41;;;;;;;9.23;6.57;;;;;;;;;;5048578;28;20033;-69
2022/11/14 00:47:06;;;;;;;12.25;6.15;;;;;;;;;;5050359;28;20025;-68
2022/11/14 00:49:32;;;;;;;11.38;6.43;;;;;;;;;;5041712;28;20025;-67
2022/11/14 00:51:57;;;;;;;8.68;5.72;;;;;;;;;;5027802;28;20041;-68
2022/11/14 00:54:22;;;;;;;9.25;7.30;;;;;;;;;;5037798;28;20370;-67
2022/11/14 00:56:47;;;;;;;11.45;6.85;;;;;;;;;;5052039;28;20070;-70
2022/11/14 00:59:13;;;;;;;9.50;6.63;;;;;;;;;;5052026;28;20024;-70
2022/11/14 01:01:38;;;;;;;9.50;6.80;;;;;;;;;;5052017;28;20032;-70
2022/11/14 01:04:03;;;;;;;9.60;6.82;;;;;;;;;;5052089;28;20494;-70
2022/11/14 01:06:28;;;;;;;9.00;6.53;;;;;;;;;;5052243;28;20107;-71
2022/11/14 01:08:54;;;;;;;9.73;6.80;;;;;;;;;;5052117;28;20021;-71
2022/11/14 01:11:20;;;;;;;11.85;6.47;;;;;;;;;;5051246;28;20021;-70
2022/11/14 01:13:45;;;;;;;9.43;6.40;;;;;;;;;;5050620;28;20434;-70
2022/11/14 01:16:10;;;;;;;9.27;6.60;;;;;;;;;;5051705;28;20024;-71
2022/11/14 01:18:36;;;;;;;8.25;6.15;;;;;;;;;;5052170;28;20024;-70
2022/11/14 01:21:08;;;;;;;10.18;6.82;;;;;;;;;;5051147;28;20021;-70
2022/11/14 01:23:34;;;;;;;11.38;5.97;;;;;;;;;;5039585;28;20480;-72
2022/11/14 01:26:03;;;;;;;10.45;6.53;;;;;;;;;;5040168;28;20044;-70
2022/11/14 01:28:29;;;;;;;9.57;6.65;;;;;;;;;;5051576;28;20035;-70
2022/11/14 01:30:54;;;;;;;10.80;6.85;;;;;;;;;;5049717;28;20792;-70
2022/11/14 01:33:19;;;;;;;9.30;6.45;;;;;;;;;;5048368;28;20029;-70
2022/11/14 01:35:44;;;;;;;8.77;6.38;;;;;;;;;;5032177;28;20064;-70
2022/11/14 01:38:11;;;;;;;11.30;6.85;;;;;;;;;;5046871;28;20071;-70
2022/11/14 01:40:40;;;;;;;9.93;6.07;;;;;;;;;;5051880;28;20017;-70
2022/11/14 01:43:28;;;;;;;12.10;7.30;;;;;;;;;;5051594;28;20052;-70
2022/11/14 01:45:56;;;;;;;10.38;6.93;;;;;;;;;;5043600;28;20099;-70
2022/11/14 01:48:33;;;;;;;9.20;7.10;;;;;;;;;;5050597;28;20021;-70
2022/11/14 01:51:13;;;;;;;9.50;6.55;;;;;;;;;;5040419;28;20021;-70
2022/11/14 01:53:39;;;;;;;8.93;6.22;;;;;;;;;;5049428;28;20457;-70
2022/11/14 01:56:05;;;;;;;8.55;7.00;;;;;;;;;;5053521;28;20013;-70
2022/11/14 01:58:32;;;;;;;9.32;6.85;;;;;;;;;;5051706;28;20021;-70
2022/11/14 02:00:58;;;;;;;10.35;8.00;;;;;;;;;;5054388;28;20024;-70
2022/11/14 02:03:23;;;;;;;13.23;7.72;;;;;;;;;;5054153;28;20382;-70
2022/11/14 02:05:49;;;;;;;9.40;6.65;;;;;;;;;;5055024;28;20387;-70
2022/11/14 02:08:15;;;;;;;8.93;7.03;;;;;;;;;;5049087;28;20471;-70
2022/11/14 02:10:40;;;;;;;12.23;8.82;;;;;;;;;;5055196;28;20024;-70
2022/11/14 02:13:06;;;;;;;9.27;7.82;;;;;;;;;;5055199;28;20029;-70
2022/11/14 02:15:31;;;;;;;11.85;8.65;;;;;;;;;;5053065;28;20025;-70
2022/11/14 02:17:57;;;;;;;11.05;7.80;;;;;;;;;;5048786;28;20418;-69
2022/11/14 02:20:23;;;;;;;13.13;8.07;;;;;;;;;;5038361;28;20025;-70
2022/11/14 02:22:49;;;;;;;13.70;9.13;;;;;;;;;;5050888;28;20092;-70
2022/11/14 02:25:16;;;;;;;14.75;10.23;;;;;;;;;;5055462;28;20457;-70
2022/11/14 02:27:41;;;;;;;13.57;9.65;;;;;;;;;;5053978;28;20467;-70
2022/11/14 02:30:09;;;;;;;13.93;9.77;;;;;;;;;;5055195;28;20013;-70
2022/11/14 02:32:34;;;;;;;20.17;11.15;;;;;;;;;;5054560;28;20120;-70
2022/11/14 02:34:59;;;;;;;20.45;12.52;;;;;;;;;;5050908;28;20016;-70
2022/11/14 02:37:25;;;;;;;15.02;11.75;;;;;;;;;;5054155;28;20410;-70
2022/11/14 02:39:50;;;;;;;21.42;12.50;;;;;;;;;;5054763;28;20021;-70
2022/11/14 02:42:15;;;;;;;18.35;11.20;;;;;;;;;;5054438;28;20071;-69
2022/11/14 02:44:40;;;;;;;14.82;10.10;;;;;;;;;;5053706;28;20056;-69
2022/11/14 02:47:05;;;;;;;14.00;11.27;;;;;;;;;;5054525;28;20017;-70
2022/11/14 02:49:31;;;;;;;14.88;10.32;;;;;;;;;;5052921;28;20024;-70
2022/11/14 02:51:56;;;;;;;14.10;10.27;;;;;;;;;;5053178;28;20032;-70
2022/11/14 02:54:21;;;;;;;16.73;10.32;;;;;;;;;;5054507;28;20025;-70
2022/11/14 02:56:46;;;;;;;14.93;9.70;;;;;;;;;;5053238;28;20107;-70
2022/11/14 02:59:12;;;;;;;14.80;10.27;;;;;;;;;;5052977;28;20350;-70
2022/11/14 03:01:37;;;;;;;17.75;10.82;;;;;;;;;;5054426;28;20023;-70
2022/11/14 03:04:02;;;;;;;17.90;11.77;;;;;;;;;;5054463;28;20017;-70
2022/11/14 03:06:27;;;;;;;14.30;11.18;;;;;;;;;;5053677;28;20463;-70
2022/11/14 03:08:53;;;;;;;20.52;13.32;;;;;;;;;;5052539;28;20031;-70
2022/11/14 03:11:18;;;;;;;18.70;12.32;;;;;;;;;;5048010;28;20847;-70
2022/11/14 03:13:43;;;;;;;18.58;12.57;;;;;;;;;;5053382;28;20087;-70
2022/11/14 03:16:09;;;;;;;19.25;12.55;;;;;;;;;;5049138;28;20021;-70
2022/11/14 03:18:35;;;;;;;15.57;11.60;;;;;;;;;;5046923;28;20025;-70
2022/11/14 03:21:19;;;;;;;14.05;10.98;;;;;;;;;;5050758;28;20100;-70
2022/11/14 03:23:44;;;;;;;16.80;11.38;;;;;;;;;;5047265;28;20044;-71
2022/11/14 03:26:10;;;;;;;18.77;11.88;;;;;;;;;;5053197;28;20416;-71
2022/11/14 03:28:36;;;;;;;17.88;12.10;;;;;;;;;;5053831;28;20025;-71
2022/11/14 03:31:01;;;;;;;17.48;11.88;;;;;;;;;;5052533;28;20032;-71
2022/11/14 03:33:27;;;;;;;17.40;13.05;;;;;;;;;;5043428;28;20028;-71
2022/11/14 03:35:52;;;;;;;19.60;12.50;;;;;;;;;;5053637;28;20013;-71
2022/11/14 03:38:18;;;;;;;16.10;12.80;;;;;;;;;;5044811;28;20025;-71
2022/11/14 03:40:43;;;;;;;17.42;12.52;;;;;;;;;;5053595;28;20013;-72
2022/11/14 03:43:08;;;;;;;18.63;13.70;;;;;;;;;;5053407;28;20029;-70
2022/11/14 03:45:35;;;;;;;18.55;13.00;;;;;;;;;;5052277;28;20037;-70
2022/11/14 03:48:00;;;;;;;18.70;12.63;;;;;;;;;;5051659;28;20056;-70
2022/11/14 03:50:25;;;;;;;18.05;12.23;;;;;;;;;;5053411;28;20045;-71
2022/11/14 03:52:51;;;;;;;21.23;13.10;;;;;;;;;;5052424;28;20071;-71
2022/11/14 03:55:16;;;;;;;18.50;13.05;;;;;;;;;;5053417;28;20032;-70
2022/11/14 03:57:41;;;;;;;21.00;12.88;;;;;;;;;;5052002;28;20044;-70
2022/11/14 04:00:07;;;;;;;16.52;11.80;;;;;;;;;;5053378;28;20464;-70
2022/11/14 04:02:32;;;;;;;19.30;13.65;;;;;;;;;;5053090;28;20459;-71
2022/11/14 04:04:58;;;;;;;23.23;13.10;;;;;;;;;;5065612;28;20027;-71
2022/11/14 04:07:23;;;;;;;18.95;14.60;;;;;;;;;;5049317;28;20275;-71
2022/11/14 04:09:48;;;;;;;20.48;12.23;;;;;;;;;;5053056;28;20475;-71
2022/11/14 04:12:13;;;;;;;16.67;12.93;;;;;;;;;;5051152;28;20025;-71
2022/11/14 04:14:39;;;;;;;20.83;14.15;;;;;;;;;;5033430;28;20029;-71
2022/11/14 04:17:04;;;;;;;17.00;13.43;;;;;;;;;;5047402;28;20438;-71
2022/11/14 04:19:29;;;;;;;16.38;13.52;;;;;;;;;;5049571;28;20822;-71
2022/11/14 04:21:54;;;;;;;23.92;14.32;;;;;;;;;;5040805;28;20475;-71
2022/11/14 04:24:19;;;;;;;21.23;13.90;;;;;;;;;;5049429;28;20399;-71
2022/11/14 04:26:45;;;;;;;16.45;11.90;;;;;;;;;;5052991;28;20375;-70
2022/11/14 04:29:10;;;;;;;18.83;11.70;;;;;;;;;;5052199;28;20096;-71
2022/11/14 04:31:35;;;;;;;18.92;12.43;;;;;;;;;;5053025;28;20031;-71
2022/11/14 04:34:00;;;;;;;20.60;12.40;;;;;;;;;;5052832;28;20422;-71
2022/11/14 04:36:26;;;;;;;17.70;12.52;;;;;;;;;;5052655;28;20036;-69
2022/11/14 04:38:51;;;;;;;23.75;12.82;;;;;;;;;;5050340;28;20028;-69
2022/11/14 04:41:16;;;;;;;18.52;12.77;;;;;;;;;;5052261;28;20510;-69
2022/11/14 04:43:41;;;;;;;13.98;11.48;;;;;;;;;;5052572;28;20426;-69
2022/11/14 04:46:07;;;;;;;22.00;13.20;;;;;;;;;;5037620;28;20128;-69
2022/11/14 04:48:32;;;;;;;18.25;12.35;;;;;;;;;;5052795;28;20447;-69
2022/11/14 04:50:57;;;;;;;15.98;11.95;;;;;;;;;;5051238;28;20063;-70
2022/11/14 04:53:22;;;;;;;21.13;12.70;;;;;;;;;;5046459;28;20116;-70
2022/11/14 04:55:47;;;;;;;21.15;12.25;;;;;;;;;;5052146;28;20029;-70
2022/11/14 04:58:13;;;;;;;20.45;12.52;;;;;;;;;;5028269;28;20017;-71
2022/11/14 05:00:38;;;;;;;17.98;12.27;;;;;;;;;;5028550;28;20017;-70
2022/11/14 05:03:03;;;;;;;16.05;12.13;;;;;;;;;;5052000;28;20100;-72
2022/11/14 05:05:28;;;;;;;18.88;12.23;;;;;;;;;;5045835;28;20021;-72
2022/11/14 05:07:54;;;;;;;16.25;12.88;;;;;;;;;;5050038;28;20025;-71
2022/11/14 05:10:19;;;;;;;15.15;12.27;;;;;;;;;;5049444;28;20032;-72
2022/11/14 05:12:44;;;;;;;16.33;11.02;;;;;;;;;;5040281;28;20025;-69
2022/11/14 05:15:09;;;;;;;18.15;11.75;;;;;;;;;;5050755;28;20379;-69
2022/11/14 05:17:35;;;;;;;15.07;10.70;;;;;;;;;;5052043;28;20017;-70
2022/11/14 05:20:00;;;;;;;14.48;10.90;;;;;;;;;;5051901;28;20060;-68
2022/11/14 05:22:25;;;;;;;18.38;11.52;;;;;;;;;;5049748;28;20379;-69
2022/11/14 05:24:50;;;;;;;15.98;11.43;;;;;;;;;;5051767;28;20123;-69
2022/11/14 05:27:16;;;;;;;19.48;11.45;;;;;;;;;;5051398;28;20021;-69
2022/11/14 05:29:41;;;;;;;18.02;11.82;;;;;;;;;;5050652;28;20017;-69
2022/11/14 05:32:06;;;;;;;17.38;11.35;;;;;;;;;;5048619;28;20479;-69
2022/11/14 05:34:32;;;;;;;14.68;10.57;;;;;;;;;;5045029;28;20036;-73
2022/11/14 05:36:57;;;;;;;12.35;10.40;;;;;;;;;;5044025;28;20078;-70
2022/11/14 05:39:22;;;;;;;14.50;10.90;;;;;;;;;;5051581;28;20017;-70
2022/11/14 05:41:47;;;;;;;15.93;11.23;;;;;;;;;;5051563;28;20103;-70
2022/11/14 05:44:12;;;;;;;14.82;10.75;;;;;;;;;;5051641;28;20044;-70
2022/11/14 05:46:38;;;;;;;16.48;10.45;;;;;;;;;;5051907;28;20028;-70
2022/11/14 05:49:03;;;;;;;16.60;11.55;;;;;;;;;;5048946;28;20020;-70
2022/11/14 05:51:28;;;;;;;15.18;9.75;;;;;;;;;;5049747;28;20025;-70
2022/11/14 05:53:54;;;;;;;16.23;11.43;;;;;;;;;;5048551;28;20075;-70
2022/11/14 05:56:19;;;;;;;15.00;11.18;;;;;;;;;;5033175;28;20550;-70
2022/11/14 05:58:44;;;;;;;13.57;10.45;;;;;;;;;;5032314;28;20487;-70
2022/11/14 06:01:14;;;;;;;16.00;11.15;;;;;;;;;;5049756;28;20021;-71
2022/11/14 06:03:40;;;;;;;18.58;10.98;;;;;;;;;;5046561;28;20527;-69
2022/11/14 06:06:06;;;;;;;17.25;11.57;;;;;;;;;;5041409;28;20046;-70
2022/11/14 06:08:32;;;;;;;16.55;11.18;;;;;;;;;;5045816;28;20025;-70
2022/11/14 06:11:04;;;;;;;19.05;11.18;;;;;;;;;;5050478;28;20016;-70
2022/11/14 06:13:30;;;;;;;15.63;11.30;;;;;;;;;;5049165;28;20035;-68
2022/11/14 06:16:06;;;;;;;20.30;11.40;;;;;;;;;;5050039;28;20092;-68
2022/11/14 06:18:32;;;;;;;15.25;10.90;;;;;;;;;;5050727;28;20037;-68
2022/11/14 06:21:00;;;;;;;15.45;10.85;;;;;;;;;;5049588;28;20021;-71
2022/11/14 06:23:26;;;;;;;21.10;12.25;;;;;;;;;;5039223;28;20029;-70
2022/11/14 06:25:51;;;;;;;19.80;12.05;;;;;;;;;;5048407;28;20115;-70
2022/11/14 06:28:16;;;;;;;15.55;11.15;;;;;;;;;;5048794;28;20021;-70
2022/11/14 06:30:42;;;;;;;16.20;11.10;;;;;;;;;;5050085;28;20067;-70
2022/11/14 06:33:07;;;;;;;17.60;11.80;;;;;;;;;;5049818;28;20021;-69
2022/11/14 06:35:32;;;;;;;15.75;12.00;;;;;;;;;;5037097;28;20075;-68
2022/11/14 06:38:00;;;;;;;17.30;11.98;;;;;;;;;;5048864;28;20068;-69
2022/11/14 06:40:25;;;;;;;18.05;12.52;;;;;;;;;;5049780;28;20021;-69
2022/11/14 06:42:53;;;;;;;19.05;12.32;;;;;;;;;;5050851;28;20028;-69
2022/11/14 06:45:19;;;;;;;13.82;9.35;;;;;;;;;;5054179;28;20025;-69
2022/11/14 06:47:44;;;;;;;14.05;11.20;;;;;;;;;;5053198;28;20028;-69
2022/11/14 06:50:09;;;;;;;16.13;12.00;;;;;;;;;;5048509;28;20021;-69
2022/11/14 06:52:34;;;;;;;18.48;12.35;;;;;;;;;;5038946;28;20472;-69
2022/11/14 06:55:00;;;;;;;13.15;10.20;;;;;;;;;;5054142;28;20043;-69
2022/11/14 06:57:25;;;;;;;16.45;12.40;;;;;;;;;;5052190;28;20032;-69
2022/11/14 06:59:50;;;;;;;15.55;12.07;;;;;;;;;;5053326;28;20025;-69
2022/11/14 07:02:15;;;;;;;15.15;11.88;;;;;;;;;;5052444;28;20013;-71
2022/11/14 07:04:40;;;;;;;17.33;13.05;;;;;;;;;;5049057;28;20020;-71
2022/11/14 07:07:06;;;;;;;24.65;13.52;;;;;;;;;;5052542;28;20032;-71
2022/11/14 07:09:31;;;;;;;18.48;12.88;;;;;;;;;;5043908;28;20033;-70
2022/11/14 07:11:56;;;;;;;19.15;13.63;;;;;;;;;;5048610;28;20096;-71
2022/11/14 07:14:21;;;;;;;19.27;13.38;;;;;;;;;;5053093;28;20017;-71
2022/11/14 07:16:47;;;;;;;24.90;14.68;;;;;;;;;;5052065;28;20079;-71
2022/11/14 07:19:12;;;;;;;19.08;13.95;;;;;;;;;;5049158;28;20013;-71
2022/11/14 07:21:37;;;;;;;19.52;14.90;;;;;;;;;;5019352;28;20024;-71
2022/11/14 07:24:03;;;;;;;26.45;17.23;;;;;;;;;;5010104;28;20932;-71
2022/11/14 07:26:28;;;;;;;24.38;17.13;;;;;;;;;;5022585;28;20020;-71
2022/11/14 07:28:53;;;;;;;24.95;18.05;;;;;;;;;;5053458;28;20025;-70
2022/11/14 07:31:19;;;;;;;43.22;30.63;;;;;;;;;;5052218;28;20071;-70
2022/11/14 07:33:44;;;;;;;26.35;20.33;;;;;;;;;;5067596;28;20056;-70
2022/11/14 07:36:10;;;;;;;29.67;20.83;;;;;;;;;;5053253;28;20027;-70
2022/11/14 07:38:36;;;;;;;31.67;21.58;;;;;;;;;;5051818;28;20027;-70
2022/11/14 07:41:03;;;;;;;26.10;19.75;;;;;;;;;;5053158;28;20025;-70
2022/11/14 07:43:29;;;;;;;33.33;22.38;;;;;;;;;;5051161;28;20036;-70
2022/11/14 07:45:58;;;;;;;26.63;21.45;;;;;;;;;;5053680;28;20025;-70
2022/11/14 07:48:23;;;;;;;25.88;19.48;;;;;;;;;;5050974;28;20130;-70
2022/11/14 07:50:48;;;;;;;21.92;18.92;;;;;;;;;;5052654;28;20491;-70
2022/11/14 07:53:14;;;;;;;27.25;19.70;;;;;;;;;;5040471;28;20029;-70
2022/11/14 07:55:39;;;;;;;28.90;19.58;;;;;;;;;;5046561;28;20028;-70
2022/11/14 07:58:04;;;;;;;27.70;20.98;;;;;;;;;;5041597;28;20104;-70
2022/11/14 08:00:30;;;;;;;30.48;19.85;;;;;;;;;;5037882;28;20465;-70
2022/11/14 08:02:55;;;;;;;25.63;20.73;;;;;;;;;;5051933;28;20383;-70
2022/11/14 08:05:20;;;;;;;24.55;19.40;;;;;;;;;;5040339;28;20026;-70
2022/11/14 08:07:46;;;;;;;29.08;19.38;;;;;;;;;;5052210;28;20459;-70
2022/11/14 08:10:12;;;;;;;25.13;19.50;;;;;;;;;;5038832;28;20495;-70
2022/11/14 08:12:38;;;;;;;26.00;19.30;;;;;;;;;;5040147;28;20025;-70
2022/11/14 08:15:04;;;;;;;23.92;18.20;;;;;;;;;;5051747;28;20033;-70
2022/11/14 08:17:30;;;;;;;29.45;18.65;;;;;;;;;;5047773;28;20086;-70
2022/11/14 08:19:55;;;;;;;25.08;17.65;;;;;;;;;;5051163;28;20024;-70
2022/11/14 08:22:20;;;;;;;24.73;19.35;;;;;;;;;;5050968;28;20066;-71
2022/11/14 08:24:45;;;;;;;24.00;19.10;;;;;;;;;;5050138;28;20161;-71
2022/11/14 08:27:11;;;;;;;25.05;18.98;;;;;;;;;;5048764;28;20494;-70
2022/11/14 08:29:36;;;;;;;26.33;19.65;;;;;;;;;;5052447;28;20066;-70
2022/11/14 08:32:01;;;;;;;27.77;21.08;;;;;;;;;;5052641;28;20028;-70
2022/11/14 08:34:28;;;;;;;25.27;20.35;;;;;;;;;;5052658;28;20024;-71
2022/11/14 08:36:53;;;;;;;31.33;21.20;;;;;;;;;;5052787;28;20024;-70
2022/11/14 08:39:18;;;;;;;28.33;19.85;;;;;;;;;;5048974;28;20478;-71
2022/11/14 08:41:43;;;;;;;31.10;21.13;;;;;;;;;;5051189;28;20028;-71
2022/11/14 08:44:09;;;;;;;30.13;22.95;;;;;;;;;;5051617;28;20065;-70
2022/11/14 08:46:34;;;;;;;37.47;26.85;;;;;;;;;;5047878;28;20038;-71
2022/11/14 08:48:59;;;;;;;30.27;23.58;;;;;;;;;;5049601;28;20047;-70
2022/11/14 08:51:24;;;;;;;33.17;25.80;;;;;;;;;;5051940;28;20021;-70
2022/11/14 08:53:51;;;;;;;33.92;21.33;;;;;;;;;;5047562;28;20100;-70
2022/11/14 08:56:16;;;;;;;21.48;19.15;;;;;;;;;;5051209;28;20009;-70
2022/11/14 08:58:41;;;;;;;23.30;18.60;;;;;;;;;;5050226;28;20024;-70
2022/11/14 09:01:07;;;;;;;30.05;18.90;;;;;;;;;;5050383;28;20016;-70
2022/11/14 09:03:32;;;;;;;25.15;19.20;;;;;;;;;;5046599;28;20085;-70
2022/11/14 09:05:58;;;;;;;27.48;19.58;;;;;;;;;;5043401;28;20048;-71
2022/11/14 09:08:23;;;;;;;23.75;18.30;;;;;;;;;;5041783;28;20026;-70
2022/11/14 09:10:49;;;;;;;25.63;17.80;;;;;;;;;;5037485;28;20021;-70
2022/11/14 09:13:14;;;;;;;22.55;16.58;;;;;;;;;;5043573;28;20021;-70
2022/11/14 09:15:40;;;;;;;18.98;15.80;;;;;;;;;;5042560;28;20028;-70
2022/11/14 09:18:05;;;;;;;24.15;16.30;;;;;;;;;;5037105;28;20093;-70
2022/11/14 09:20:31;;;;;;;20.27;16.38;;;;;;;;;;5039631;28;20104;-70
2022/11/14 09:23:00;;;;;;;20.10;15.82;;;;;;;;;;5040034;28;20084;-68
2022/11/14 09:25:25;;;;;;;21.35;16.08;;;;;;;;;;5041149;28;20028;-70
2022/11/14 09:27:50;;;;;;;19.70;15.20;;;;;;;;;;5035050;28;20021;-70
2022/11/14 09:30:16;;;;;;;20.75;14.27;;;;;;;;;;5038334;28;20112;-70
2022/11/14 09:32:41;;;;;;;19.42;13.57;;;;;;;;;;5011569;28;20029;-71
2022/11/14 09:35:06;;;;;;;23.38;14.50;;;;;;;;;;5036340;28;20067;-70
2022/11/14 09:37:31;;;;;;;20.27;12.07;;;;;;;;;;5043415;28;20398;-70
2022/11/14 09:39:57;;;;;;;18.67;13.15;;;;;;;;;;5047726;28;20450;-70
2022/11/14 09:42:44;;;;;;;16.65;12.77;;;;;;;;;;5051056;28;20071;-70
2022/11/14 09:45:11;;;;;;;16.67;12.27;;;;;;;;;;5047855;28;20503;-71
2022/11/14 09:47:40;;;;;;;17.40;12.57;;;;;;;;;;5048267;28;20025;-70
2022/11/14 09:50:15;;;;;;;19.73;12.25;;;;;;;;;;5045106;28;20024;-70
2022/11/14 09:52:46;;;;;;;13.68;11.35;;;;;;;;;;5037615;28;20032;-70
2022/11/14 09:55:22;;;;;;;18.15;10.95;;;;;;;;;;5042860;28;20029;-70
2022/11/14 09:57:47;;;;;;;13.15;10.50;;;;;;;;;;5039333;28;20027;-70
2022/11/14 10:00:13;;;;;;;13.68;11.30;;;;;;;;;;5050740;28;20480;-70
2022/11/14 10:02:40;;;;;;;16.02;11.60;;;;;;;;;;5048699;28;20483;-70
2022/11/14 10:05:05;;;;;;;17.35;12.00;;;;;;;;;;5050564;28;20029;-70
2022/11/14 10:07:33;;;;;;;13.10;10.37;;;;;;;;;;5044762;28;20022;-70
2022/11/14 10:10:04;;;;;;;13.82;11.23;;;;;;;;;;5036061;28;20280;-70
2022/11/14 10:12:34;;;;;;;13.95;11.07;;;;;;;;;;5032749;28;20021;-68
2022/11/14 10:14:59;;;;;;;14.32;11.15;;;;;;;;;;5037293;28;20028;-68
2022/11/14 10:17:25;;;;;;;17.35;11.35;;;;;;;;;;5041247;28;20029;-68
2022/11/14 10:19:51;;;;;;;16.92;10.93;;;;;;;;;;5046977;28;20107;-68
2022/11/14 10:22:35;;;;;;;18.60;10.95;;;;;;;;;;5040885;28;20065;-68
2022/11/14 10:25:19;;;;;;;16.30;11.77;;;;;;;;;;5040693;28;20060;-68
2022/11/14 10:27:50;;;;;;;11.07;8.45;;;;;;;;;;5036420;28;20035;-68
2022/11/14 10:30:17;;;;;;;16.70;10.48;;;;;;;;;;5041535;28;20024;-68
2022/11/14 10:33:08;;;;;;;14.18;10.65;;;;;;;;;;5040542;28;20052;-68
2022/11/14 10:35:37;;;;;;;16.05;11.00;;;;;;;;;;5051518;28;20037;-68
2022/11/14 10:38:06;;;;;;;17.83;11.50;;;;;;;;;;5054410;28;20021;-69
2022/11/14 10:40:58;;;;;;;13.63;9.55;;;;;;;;;;5037480;28;20048;-68
2022/11/14 10:43:38;;;;;;;16.45;9.90;;;;;;;;;;5034465;28;20534;-69
2022/11/14 10:46:21;;;;;;;14.40;9.95;;;;;;;;;;5039970;28;20053;-69
2022/11/14 10:48:47;;;;;;;13.25;9.60;;;;;;;;;;5045091;28;20021;-70
2022/11/14 10:51:23;;;;;;;16.58;9.35;;;;;;;;;;5042748;28;20032;-69
2022/11/14 10:53:56;;;;;;;13.10;9.63;;;;;;;;;;5054313;28;20056;-69
2022/11/14 10:56:22;;;;;;;13.13;8.70;;;;;;;;;;5053990;28;20021;-70
2022/11/14 10:58:47;;;;;;;14.02;9.77;;;;;;;;;;5053633;28;20017;-69
2022/11/14 11:01:31;;;;;;;12.40;8.82;;;;;;;;;;5051676;28;20451;-70
2022/11/14 11:03:56;;;;;;;10.75;9.10;;;;;;;;;;5049795;28;20021;-70
2022/11/14 11:06:25;;;;;;;14.35;9.73;;;;;;;;;;5050398;28;20029;-70
2022/11/14 11:11:36;;;;;;;15.82;11.43;;;;;;;;;;5047094;28;20347;-70
2022/11/14 11:14:02;;;;;;;16.90;11.40;;;;;;;;;;5052129;28;20087;-69
2022/11/14 11:16:28;;;;;;;16.52;12.65;;;;;;;;;;5053993;28;20545;-70
2022/11/14 11:19:11;;;;;;;19.00;14.85;;;;;;;;;;5051896;28;20126;-70
2022/11/14 11:21:47;;;;;;;19.73;14.57;;;;;;;;;;5053404;28;20147;-69
2022/11/14 11:24:28;;;;;;;22.40;13.93;;;;;;;;;;5052656;28;20024;-69
2022/11/14 11:27:13;;;;;;;21.42;15.32;;;;;;;;;;5053789;28;20032;-73
2022/11/14 11:29:38;;;;;;;19.17;14.35;;;;;;;;;;5036823;28;20457;-70
2022/11/14 11:32:04;;;;;;;21.48;14.77;;;;;;;;;;5053848;28;20051;-70
2022/11/14 11:34:32;;;;;;;20.83;14.20;;;;;;;;;;5053601;28;20100;-70
2022/11/14 11:37:00;;;;;;;24.73;13.60;;;;;;;;;;5049046;28;20104;-70
2022/11/14 11:39:28;;;;;;;17.77;15.00;;;;;;;;;;5053269;28;20025;-70
2022/11/14 11:41:54;;;;;;;17.02;14.15;;;;;;;;;;5052687;28;20043;-70
2022/11/14 11:44:20;;;;;;;23.73;14.95;;;;;;;;;;5053046;28;20021;-70
2022/11/14 11:46:59;;;;;;;24.40;15.68;;;;;;;;;;5052222;28;20063;-71
2022/11/14 11:49:35;;;;;;;25.52;14.52;;;;;;;;;;5054111;28;20096;-69
2022/11/14 11:52:03;;;;;;;19.20;14.50;;;;;;;;;;5050455;28;20681;-69
2022/11/14 11:54:43;;;;;;;25.92;14.88;;;;;;;;;;5053806;28;20040;-69
2022/11/14 11:57:14;;;;;;;21.98;14.45;;;;;;;;;;5051485;28;20029;-72
2022/11/14 11:59:41;;;;;;;18.38;13.45;;;;;;;;;;5053714;28;20021;-71
2022/11/14 12:02:32;;;;;;;17.35;13.65;;;;;;;;;;5051546;28;20017;-71
2022/11/14 12:04:59;;;;;;;20.60;13.35;;;;;;;;;;5050330;28;20040;-70
2022/11/14 12:07:33;;;;;;;18.65;14.07;;;;;;;;;;5050264;28;20021;-69
2022/11/14 12:10:01;;;;;;;19.17;13.68;;;;;;;;;;5039999;28;20056;-70
2022/11/14 12:12:35;;;;;;;17.98;13.57;;;;;;;;;;5052907;28;20024;-70
2022/11/14 12:15:01;;;;;;;;;;;;;;;;;;5030452;28;20056;-71
2022/11/14 12:17:45;;;;;;;20.35;11.25;;;;;;;;;;5019195;28;21351;-70
2022/11/14 12:20:25;;;;;;;18.30;13.38;;;;;;;;;;5034345;28;20032;-70
2022/11/14 12:22:53;;;;;;;22.42;13.35;;;;;;;;;;5037327;28;20090;-69
2022/11/14 12:25:41;;;;;;;15.32;12.43;;;;;;;;;;5037269;28;20089;-69
2022/11/14 12:28:25;;;;;;;16.23;12.15;;;;;;;;;;5040584;28;20021;-70
2022/11/14 12:30:54;;;;;;;17.42;12.15;;;;;;;;;;5034187;28;20013;-70
2022/11/14 12:33:28;;;;;;;19.13;11.88;;;;;;;;;;5036177;28;20018;-69
2022/11/14 12:35:55;;;;;;;16.13;11.85;;;;;;;;;;5036913;28;20045;-70
2022/11/14 12:38:21;;;;;;;17.50;12.30;;;;;;;;;;5040388;28;20027;-69
2022/11/14 12:40:54;;;;;;;17.25;12.13;;;;;;;;;;5031732;28;20029;-69
2022/11/14 12:43:28;;;;;;;16.35;11.35;;;;;;;;;;5035191;28;20048;-70
2022/11/14 12:45:57;;;;;;;17.33;11.80;;;;;;;;;;5033359;28;20021;-69
2022/11/14 12:48:28;;;;;;;14.50;11.45;;;;;;;;;;5034579;28;20021;-69
2022/11/14 12:50:55;;;;;;;12.95;10.68;;;;;;;;;;5030951;28;20489;-70
2022/11/14 12:53:35;;;;;;;18.83;10.70;;;;;;;;;;5032358;28;20029;-69
2022/11/14 12:56:19;;;;;;;12.55;10.30;;;;;;;;;;5042610;28;20639;-69
2022/11/14 12:59:03;;;;;;;14.53;10.07;;;;;;;;;;5031304;28;20075;-70
2022/11/14 13:01:43;;;;;;;12.82;9.82;;;;;;;;;;5036050;28;20264;-70
2022/11/14 13:04:16;;;;;;;14.35;9.70;;;;;;;;;;5033831;28;20017;-70
2022/11/14 13:07:00;;;;;;;12.52;10.20;;;;;;;;;;5031189;28;20223;-70
2022/11/14 13:09:51;;;;;;;15.13;9.38;;;;;;;;;;5025448;28;20040;-69
2022/11/14 13:21:50;;;;;;;15.18;9.60;;;;;;;;;;5032395;28;20056;-69
2022/11/14 13:23:50;;;;;;;16.23;10.15;;;;;;;;;;5022358;28;20029;-69
2022/11/14 13:26:16;;;;;;;17.83;9.73;;;;;;;;;;5036820;28;20082;-69
2022/11/14 13:28:48;;;;;;;14.23;8.77;;;;;;;;;;5036626;28;20761;-70
2022/11/14 13:31:13;;;;;;;11.90;9.10;;;;;;;;;;5031627;28;20355;-69
2022/11/14 13:33:43;;;;;;;14.37;8.30;;;;;;;;;;5032106;28;20104;-69
2022/11/14 13:36:29;;;;;;;13.80;7.95;;;;;;;;;;5034159;28;20274;-70
2022/11/14 13:38:57;;;;;;;10.43;6.68;;;;;;;;;;4999364;28;20037;-70
2022/11/14 13:41:26;;;;;;;11.55;7.40;;;;;;;;;;5032072;28;20488;-69
2022/11/14 13:44:06;;;;;;;9.57;5.68;;;;;;;;;;5032124;28;20022;-70
2022/11/14 13:46:40;;;;;;;10.52;5.10;;;;;;;;;;5034201;28;20113;-70
2022/11/14 13:49:08;;;;;;;10.15;5.05;;;;;;;;;;5033675;28;20026;-69
2022/11/14 13:51:33;;;;;;;6.85;4.78;;;;;;;;;;5043196;28;20471;-70
2022/11/14 13:53:59;;;;;;;8.90;5.20;;;;;;;;;;5040722;28;20036;-71
2022/11/14 13:56:33;;;;;;;17.52;5.30;;;;;;;;;;5042505;28;20112;-71
2022/11/14 13:58:58;;;;;;;;;;;;;;;;;;5040495;28;20475;-70
2022/11/14 14:01:27;;;;;;;7.78;5.07;;;;;;;;;;5047867;28;20318;-71
2022/11/14 14:03:52;;;;;;;9.15;5.65;;;;;;;;;;5039311;28;20051;-68
2022/11/14 14:06:18;;;;;;;7.57;5.27;;;;;;;;;;5053383;28;20053;-70
2022/11/14 14:08:43;;;;;;;12.63;5.47;;;;;;;;;;5054522;28;20285;-68
2022/11/14 14:11:11;;;;;;;8.97;6.00;;;;;;;;;;5051930;28;20676;-67
2022/11/14 14:13:47;;;;;;;9.60;5.25;;;;;;;;;;5054579;28;20781;-69
2022/11/14 14:16:20;;;;;;;8.00;5.53;;;;;;;;;;5054876;28;20028;-71
2022/11/14 14:18:55;;;;;;;9.07;6.15;;;;;;;;;;5045096;28;20036;-70
2022/11/14 14:21:26;;;;;;;9.18;5.78;;;;;;;;;;5045768;28;20033;-70
2022/11/14 14:23:55;;;;;;;9.88;5.82;;;;;;;;;;5052622;28;20078;-71
2022/11/14 14:26:39;;;;;;;8.52;6.00;;;;;;;;;;5054752;28;20021;-69
2022/11/14 14:29:10;;;;;;;8.57;6.37;;;;;;;;;;5054868;28;20067;-69
2022/11/14 14:31:37;;;;;;;11.63;7.35;;;;;;;;;;5044313;28;20347;-69
2022/11/14 14:34:02;;;;;;;9.23;6.50;;;;;;;;;;5038968;28;20026;-69
2022/11/14 14:36:28;;;;;;;10.20;6.57;;;;;;;;;;5054182;28;20020;-69
2022/11/14 14:39:12;;;;;;;9.95;7.18;;;;;;;;;;5042757;28;20030;-69